createdAt,value
2023-07-09T04:38:34.311Z,101167.59
2023-07-09T04:41:37.114Z,101172.41
2023-07-09T04:44:39.692Z,101171.28
2023-07-09T04:47:42.336Z,101181.88
2023-07-09T04:50:45.248Z,101174.41
2023-07-09T04:53:52.798Z,101172.25
2023-07-09T04:56:57.203Z,101179.78
2023-07-09T04:59:59.819Z,101178.34
2023-07-09T05:03:02.474Z,101173.03
2023-07-09T05:06:06.178Z,101180.53
2023-07-09T05:09:10.400Z,101171.56
2023-07-09T05:12:13.215Z,101172.84
2023-07-09T05:15:15.922Z,101170.88
2023-07-09T05:18:19.601Z,101160.84
2023-07-09T05:21:22.230Z,101166.56
2023-07-09T05:24:28.367Z,101165.47
2023-07-09T05:27:31.412Z,101167.63
2023-07-09T05:30:34.359Z,101178.75
2023-07-09T05:33:36.886Z,101178.66
2023-07-09T05:36:39.413Z,101181.31
2023-07-09T05:39:43.499Z,101185.78
2023-07-09T05:42:46.163Z,101185.88
2023-07-09T05:45:48.873Z,101187.78
2023-07-09T05:48:51.422Z,101188.31
2023-07-09T05:51:53.926Z,101191.53
2023-07-09T05:54:57.901Z,101194.13
2023-07-09T05:58:00.723Z,101194.56
2023-07-09T06:01:03.501Z,101197.19
2023-07-09T06:04:07.763Z,101196.94
2023-07-09T06:07:10.945Z,101189.28
2023-07-09T06:10:14.913Z,101188.25
2023-07-09T06:13:19.621Z,101192.00
2023-07-09T06:16:22.493Z,101204.03
2023-07-09T06:19:25.061Z,101204.44
2023-07-09T06:22:27.606Z,101206.84
2023-07-09T06:25:31.544Z,101208.59
2023-07-09T06:28:34.634Z,101210.75
2023-07-09T06:31:38.334Z,101211.72
2023-07-09T06:34:40.974Z,101211.69
2023-07-09T06:37:43.492Z,101211.50
2023-07-09T06:40:47.584Z,101218.13
2023-07-09T06:43:50.114Z,101216.97
2023-07-09T06:46:52.760Z,101217.06
2023-07-09T06:49:55.308Z,101220.81
2023-07-09T06:52:57.927Z,101211.69
2023-07-09T06:56:02.018Z,101220.66
2023-07-09T06:59:05.662Z,101214.94
2023-07-09T07:02:09.857Z,101216.16
2023-07-09T07:05:12.499Z,101214.88
2023-07-09T07:08:17.090Z,101220.88
2023-07-09T07:11:21.005Z,101215.44
2023-07-09T07:14:23.636Z,101228.50
2023-07-09T07:17:26.226Z,101232.41
2023-07-09T07:20:28.803Z,101237.19
2023-07-09T07:23:31.716Z,101231.31
2023-07-09T07:26:35.979Z,101239.28
2023-07-09T07:29:38.538Z,101240.81
2023-07-09T07:32:46.401Z,101242.41
2023-07-09T07:36:16.474Z,101245.09
2023-07-09T07:39:11.601Z,101240.69
2023-07-09T07:42:15.866Z,101242.34
2023-07-09T07:45:18.649Z,101246.16
2023-07-09T07:48:21.478Z,101243.84
2023-07-09T07:51:24.034Z,101234.97
2023-07-09T07:54:26.546Z,101238.69
2023-07-09T07:57:30.392Z,101240.28
2023-07-09T08:00:33.463Z,101237.06
2023-07-09T08:03:36.017Z,101235.19
2023-07-09T08:06:38.614Z,101235.06
2023-07-09T08:09:41.201Z,101235.28
2023-07-09T08:12:45.123Z,101233.19
2023-07-09T08:15:48.277Z,101234.66
2023-07-09T08:18:53.134Z,101226.75
2023-07-09T08:21:55.769Z,101232.09
2023-07-09T08:24:58.291Z,101236.00
2023-07-09T08:28:02.160Z,101235.38
2023-07-09T08:31:05.291Z,101239.56
2023-07-09T08:34:09.132Z,101239.63
2023-07-09T08:37:11.952Z,101232.63
2023-07-09T08:40:17.277Z,101247.78
2023-07-09T08:43:34.310Z,101250.13
2023-07-09T08:46:49.126Z,101258.28
2023-07-09T08:49:58.804Z,101256.38
2023-07-09T08:53:01.673Z,101248.63
2023-07-09T08:56:04.716Z,101249.03
2023-07-09T08:59:15.858Z,101247.22
2023-07-09T09:02:31.446Z,101243.25
2023-07-09T09:05:39.460Z,101242.69
2023-07-09T09:08:46.931Z,101248.91
2023-07-09T09:11:59.382Z,101247.88
2023-07-09T09:15:12.191Z,101251.41
2023-07-09T09:18:23.594Z,101248.47
2023-07-09T09:21:31.812Z,101248.66
2023-07-09T09:24:40.028Z,101249.97
2023-07-09T09:27:42.894Z,101254.16
2023-07-09T09:30:46.964Z,101250.19
2023-07-09T09:33:52.088Z,101253.13
2023-07-09T09:36:55.215Z,101252.72
2023-07-09T09:40:12.164Z,101253.59
2023-07-09T09:43:22.166Z,101248.19
2023-07-09T09:46:28.149Z,101240.81
2023-07-09T09:49:33.833Z,101246.53
2023-07-09T09:52:36.488Z,101237.50
2023-07-09T09:55:41.839Z,101241.69
2023-07-09T09:58:44.435Z,101248.47
2023-07-09T10:01:49.729Z,101233.69
2023-07-09T10:04:55.544Z,101234.13
2023-07-09T10:08:04.754Z,101232.63
2023-07-09T10:11:14.531Z,101241.38
2023-07-09T10:14:35.215Z,101246.31
2023-07-09T10:17:40.121Z,101243.50
2023-07-09T10:20:47.812Z,101239.47
2023-07-09T10:24:04.470Z,101238.91
2023-07-09T10:27:14.092Z,101243.03
2023-07-09T10:30:36.881Z,101242.91
2023-07-09T10:33:59.472Z,101244.34
2023-07-09T10:37:25.756Z,101245.38
2023-07-09T10:40:35.531Z,101243.69
2023-07-09T10:43:40.653Z,101244.78
2023-07-09T10:46:49.139Z,101233.53
2023-07-09T10:49:54.339Z,101234.28
2023-07-09T10:53:02.394Z,101227.94
2023-07-09T10:56:12.818Z,101225.00
2023-07-09T10:59:24.457Z,101220.16
2023-07-09T11:02:30.386Z,101221.34
2023-07-09T11:05:35.589Z,101224.47
2023-07-09T11:08:42.752Z,101219.41
2023-07-09T11:11:49.883Z,101217.03
2023-07-09T11:14:57.567Z,101209.94
2023-07-09T11:18:01.609Z,101210.38
2023-07-09T11:21:08.119Z,101203.34
2023-07-09T11:24:36.724Z,101206.03
2023-07-09T11:27:51.593Z,101208.63
2023-07-09T11:30:55.832Z,101200.47
2023-07-09T11:34:03.439Z,101195.06
2023-07-09T11:37:14.769Z,101194.75
2023-07-09T11:40:20.384Z,101177.50
2023-07-09T11:43:33.037Z,101180.41
2023-07-09T11:46:41.941Z,101177.22
2023-07-09T11:49:52.081Z,101182.91
2023-07-09T11:52:58.608Z,101186.56
2023-07-09T11:56:03.275Z,101175.47
2023-07-09T11:59:05.899Z,101166.63
2023-07-09T12:02:17.451Z,101172.59
2023-07-09T12:05:27.093Z,101168.69
2023-07-09T12:08:36.049Z,101171.03
2023-07-09T12:11:45.771Z,101159.06
2023-07-09T12:14:48.424Z,101156.72
2023-07-09T12:18:03.431Z,101155.53
2023-07-09T12:21:10.885Z,101156.66
2023-07-09T12:24:22.428Z,101155.22
2023-07-09T12:27:27.336Z,101149.88
2023-07-09T12:30:34.563Z,101149.78
2023-07-09T12:33:37.126Z,101141.84
2023-07-09T12:36:43.747Z,101137.56
2023-07-09T12:39:47.616Z,101140.03
2023-07-09T12:42:50.692Z,101127.84
2023-07-09T12:45:53.855Z,101124.59
2023-07-09T12:48:57.379Z,101126.78
2023-07-09T12:52:04.493Z,101124.13
2023-07-09T12:55:22.194Z,101126.03
2023-07-09T12:58:26.642Z,101122.47
2023-07-09T13:01:29.296Z,101122.88
2023-07-09T13:04:33.645Z,101123.19
2023-07-09T13:07:40.353Z,101117.59
2023-07-09T13:10:44.281Z,101107.56
2023-07-09T13:13:57.241Z,101112.59
2023-07-09T13:17:05.820Z,101120.84
2023-07-09T13:20:08.860Z,101109.97
2023-07-09T13:23:13.299Z,101120.28
2023-07-09T13:26:17.966Z,101097.66
2023-07-09T13:29:22.438Z,101103.16
2023-07-09T13:32:25.329Z,101097.53
2023-07-09T13:35:27.987Z,101094.72
2023-07-09T13:38:31.130Z,101102.09
2023-07-09T13:41:40.846Z,101100.50
2023-07-09T13:44:45.819Z,101098.25
2023-07-09T13:47:49.658Z,101098.88
2023-07-09T13:50:54.952Z,101084.50
2023-07-09T13:53:58.742Z,101081.94
2023-07-09T13:57:02.832Z,101081.19
2023-07-09T14:00:06.328Z,101084.31
2023-07-09T14:03:16.441Z,101081.13
2023-07-09T14:06:20.393Z,101079.00
2023-07-09T14:09:23.485Z,101075.31
2023-07-09T14:12:28.043Z,101089.19
2023-07-09T14:15:30.748Z,101090.75
2023-07-09T14:18:34.655Z,101088.22
2023-07-09T14:21:37.361Z,101089.16
2023-07-09T14:24:39.896Z,101084.78
2023-07-09T14:27:43.743Z,101076.50
2023-07-09T14:30:47.841Z,101080.53
2023-07-09T14:33:53.216Z,101075.63
2023-07-09T14:36:57.818Z,101074.97
2023-07-09T14:40:00.474Z,101082.66
2023-07-09T14:43:11.474Z,101079.09
2023-07-09T14:46:14.325Z,101075.59
2023-07-09T14:49:17.418Z,101078.19
2023-07-09T14:52:22.621Z,101065.75
2023-07-09T14:55:26.034Z,101065.63
2023-07-09T14:58:30.085Z,101062.16
2023-07-09T15:01:32.683Z,101064.31
2023-07-09T15:04:35.654Z,101059.47
2023-07-09T15:07:38.266Z,101053.97
2023-07-09T15:10:41.433Z,101058.75
2023-07-09T15:13:45.335Z,101064.59
2023-07-09T15:16:48.568Z,101069.63
2023-07-09T15:19:51.180Z,101071.53
2023-07-09T15:22:54.110Z,101066.91
2023-07-09T15:25:57.001Z,101058.91
2023-07-09T15:29:02.035Z,101053.56
2023-07-09T15:32:07.823Z,101054.66
2023-07-09T15:35:13.383Z,101049.81
2023-07-09T15:38:28.365Z,101042.84
2023-07-09T15:41:30.928Z,101045.59
2023-07-09T15:44:34.851Z,101027.91
2023-07-09T15:47:37.422Z,101026.00
2023-07-09T15:50:39.955Z,101022.84
2023-07-09T15:53:43.531Z,101020.34
2023-07-09T15:56:47.780Z,101018.38
2023-07-09T15:59:51.617Z,101016.69
2023-07-09T16:03:04.674Z,101018.50
2023-07-09T16:06:17.111Z,101012.81
2023-07-09T16:09:20.084Z,101005.84
2023-07-09T16:12:22.841Z,100998.19
2023-07-09T16:15:27.361Z,101001.44
2023-07-09T16:18:30.356Z,100988.63
2023-07-09T16:21:36.160Z,100999.78
2023-07-09T16:24:40.651Z,100984.00
2023-07-09T16:27:44.896Z,100973.69
2023-07-09T16:30:51.778Z,100968.78
2023-07-09T16:33:54.525Z,100961.78
2023-07-09T16:36:58.245Z,100965.34
2023-07-09T16:40:00.955Z,100966.97
2023-07-09T16:43:16.795Z,100963.81
2023-07-09T16:46:25.201Z,100951.63
2023-07-09T16:49:33.977Z,100950.69
2023-07-09T16:52:36.527Z,100943.25
2023-07-09T16:55:39.142Z,100938.28
2023-07-09T16:58:42.265Z,100941.44
2023-07-09T17:01:47.880Z,100928.59
2023-07-09T17:04:50.533Z,100928.59
2023-07-09T17:07:53.155Z,100926.06
2023-07-09T17:10:55.959Z,100927.81
2023-07-09T17:13:58.567Z,100930.81
2023-07-09T17:17:02.470Z,100927.41
2023-07-09T17:20:05.714Z,100933.78
2023-07-09T17:23:10.409Z,100933.78
2023-07-09T17:26:20.866Z,100925.59
2023-07-09T17:29:23.623Z,100920.94
2023-07-09T17:32:27.515Z,100934.41
2023-07-09T17:35:30.256Z,100927.03
2023-07-09T17:38:35.383Z,100922.75
2023-07-09T17:41:38.077Z,100908.78
2023-07-09T17:44:41.148Z,100905.84
2023-07-09T17:47:45.346Z,100909.88
2023-07-09T17:50:48.291Z,100915.75
2023-07-09T17:53:50.866Z,100915.75
2023-07-09T17:56:55.821Z,100929.56
2023-07-09T17:59:58.590Z,100941.88
2023-07-09T18:03:09.557Z,100935.28
2023-07-09T18:06:15.619Z,100935.94
2023-07-09T18:09:19.572Z,100934.59
2023-07-09T18:12:26.912Z,100933.44
2023-07-09T18:15:31.049Z,100934.13
2023-07-09T18:18:34.895Z,100929.75
2023-07-09T18:21:37.719Z,100941.63
2023-07-09T18:24:40.269Z,100947.09
2023-07-09T18:27:45.781Z,100942.31
2023-07-09T18:30:56.607Z,100934.13
2023-07-09T18:34:04.290Z,100938.38
2023-07-09T18:37:07.140Z,100940.94
2023-07-09T18:40:11.128Z,100942.97
2023-07-09T18:43:30.227Z,100947.59
2023-07-09T18:46:34.577Z,100945.00
2023-07-09T18:49:38.442Z,100941.97
2023-07-09T18:52:41.070Z,100938.56
2023-07-09T18:55:44.008Z,100935.88
